sensor_id;sensor_type;location;lat;lon;timestamp;temperature;humidity
418;DHT22;49;48.530;9.200;2023-08-24T00:02:15;25.30;43.50
418;DHT22;49;48.530;9.200;2023-08-24T00:04:42;25.30;43.70
418;DHT22;49;48.530;9.200;2023-08-24T00:07:12;25.30;43.40
418;DHT22;49;48.530;9.200;2023-08-24T00:09:39;25.20;43.60
418;DHT22;49;48.530;9.200;2023-08-24T00:12:06;25.20;44.50
418;DHT22;49;48.530;9.200;2023-08-24T00:14:35;25.20;44.00
418;DHT22;49;48.530;9.200;2023-08-24T00:17:03;25.20;43.50
418;DHT22;49;48.530;9.200;2023-08-24T00:19:30;25.10;44.30
418;DHT22;49;48.530;9.200;2023-08-24T00:21:57;25.10;44.80
418;DHT22;49;48.530;9.200;2023-08-24T00:24:27;25.20;44.10
418;DHT22;49;48.530;9.200;2023-08-24T00:27:08;24.90;44.70
418;DHT22;49;48.530;9.200;2023-08-24T00:29:37;24.60;47.00
418;DHT22;49;48.530;9.200;2023-08-24T00:32:04;24.50;48.60
418;DHT22;49;48.530;9.200;2023-08-24T00:34:31;24.50;48.60
418;DHT22;49;48.530;9.200;2023-08-24T00:36:59;24.60;48.70
418;DHT22;49;48.530;9.200;2023-08-24T00:39:28;24.60;48.70
418;DHT22;49;48.530;9.200;2023-08-24T00:41:55;24.60;48.70
418;DHT22;49;48.530;9.200;2023-08-24T00:44:22;24.70;48.40
418;DHT22;49;48.530;9.200;2023-08-24T00:46:51;24.70;48.20
418;DHT22;49;48.530;9.200;2023-08-24T00:49:18;24.70;46.80
418;DHT22;49;48.530;9.200;2023-08-24T00:51:46;24.60;48.70
418;DHT22;49;48.530;9.200;2023-08-24T00:54:15;24.60;48.70
418;DHT22;49;48.530;9.200;2023-08-24T00:56:43;24.50;48.60
418;DHT22;49;48.530;9.200;2023-08-24T00:59:10;24.60;48.70
418;DHT22;49;48.530;9.200;2023-08-24T01:01:39;24.70;48.80
418;DHT22;49;48.530;9.200;2023-08-24T01:04:10;24.60;48.70
418;DHT22;49;48.530;9.200;2023-08-24T01:06:39;24.40;50.20
418;DHT22;49;48.530;9.200;2023-08-24T01:09:07;24.40;51.70
418;DHT22;49;48.530;9.200;2023-08-24T01:11:44;24.50;51.30
418;DHT22;49;48.530;9.200;2023-08-24T01:14:21;24.50;50.50
418;DHT22;49;48.530;9.200;2023-08-24T01:16:50;24.40;51.60
418;DHT22;49;48.530;9.200;2023-08-24T01:19:33;24.30;52.20
418;DHT22;49;48.530;9.200;2023-08-24T01:22:02;24.10;53.50
418;DHT22;49;48.530;9.200;2023-08-24T01:24:38;24.00;56.20
418;DHT22;49;48.530;9.200;2023-08-24T01:27:07;24.10;55.40
418;DHT22;49;48.530;9.200;2023-08-24T01:29:38;24.20;55.50
418;DHT22;49;48.530;9.200;2023-08-24T01:32:09;24.00;55.80
418;DHT22;49;48.530;9.200;2023-08-24T01:34:37;23.70;58.30
418;DHT22;49;48.530;9.200;2023-08-24T01:37:04;23.70;61.20
418;DHT22;49;48.530;9.200;2023-08-24T01:39:42;23.80;60.80
418;DHT22;49;48.530;9.200;2023-08-24T01:42:16;23.90;58.60
418;DHT22;49;48.530;9.200;2023-08-24T01:44:49;23.80;59.60
418;DHT22;49;48.530;9.200;2023-08-24T01:47:17;23.80;58.80
418;DHT22;49;48.530;9.200;2023-08-24T01:49:45;24.00;58.10
418;DHT22;49;48.530;9.200;2023-08-24T01:52:12;24.10;57.10
418;DHT22;49;48.530;9.200;2023-08-24T01:54:40;24.00;56.40
418;DHT22;49;48.530;9.200;2023-08-24T01:57:08;24.00;56.20
418;DHT22;49;48.530;9.200;2023-08-24T01:59:36;23.80;57.40
418;DHT22;49;48.530;9.200;2023-08-24T02:02:04;23.70;59.30
418;DHT22;49;48.530;9.200;2023-08-24T02:04:30;23.70;61.80
418;DHT22;49;48.530;9.200;2023-08-24T02:06:57;23.80;62.10
418;DHT22;49;48.530;9.200;2023-08-24T02:09:25;23.80;62.10
418;DHT22;49;48.530;9.200;2023-08-24T02:11:52;23.90;62.20
418;DHT22;49;48.530;9.200;2023-08-24T02:14:18;23.90;62.20
418;DHT22;49;48.530;9.200;2023-08-24T02:16:47;24.00;62.30
418;DHT22;49;48.530;9.200;2023-08-24T02:19:14;23.90;61.10
418;DHT22;49;48.530;9.200;2023-08-24T02:21:41;23.70;62.50
418;DHT22;49;48.530;9.200;2023-08-24T02:24:08;23.60;65.60
418;DHT22;49;48.530;9.200;2023-08-24T02:26:37;23.70;66.20
418;DHT22;49;48.530;9.200;2023-08-24T02:29:15;23.70;66.10
418;DHT22;49;48.530;9.200;2023-08-24T02:31:42;23.70;65.60
418;DHT22;49;48.530;9.200;2023-08-24T02:34:11;23.70;65.80
418;DHT22;49;48.530;9.200;2023-08-24T02:36:40;23.70;64.30
418;DHT22;49;48.530;9.200;2023-08-24T02:39:07;23.80;64.10
418;DHT22;49;48.530;9.200;2023-08-24T02:41:38;23.90;62.20
418;DHT22;49;48.530;9.200;2023-08-24T02:44:05;24.00;62.30
418;DHT22;49;48.530;9.200;2023-08-24T02:46:32;23.80;63.40
418;DHT22;49;48.530;9.200;2023-08-24T02:48:59;23.50;65.10
418;DHT22;49;48.530;9.200;2023-08-24T02:51:27;23.50;66.40
418;DHT22;49;48.530;9.200;2023-08-24T02:53:54;23.50;64.50
418;DHT22;49;48.530;9.200;2023-08-24T02:56:21;23.70;63.90
418;DHT22;49;48.530;9.200;2023-08-24T02:58:48;23.60;65.50
418;DHT22;49;48.530;9.200;2023-08-24T03:01:15;23.50;67.40
418;DHT22;49;48.530;9.200;2023-08-24T03:03:42;23.50;68.50
418;DHT22;49;48.530;9.200;2023-08-24T03:06:09;23.60;67.80
418;DHT22;49;48.530;9.200;2023-08-24T03:08:38;23.80;65.90
418;DHT22;49;48.530;9.200;2023-08-24T03:11:05;23.80;63.60
418;DHT22;49;48.530;9.200;2023-08-24T03:13:35;23.90;64.00
418;DHT22;49;48.530;9.200;2023-08-24T03:16:06;23.90;62.70
418;DHT22;49;48.530;9.200;2023-08-24T03:18:33;23.90;62.50
418;DHT22;49;48.530;9.200;2023-08-24T03:21:01;23.70;63.60
418;DHT22;49;48.530;9.200;2023-08-24T03:23:27;23.80;62.10
418;DHT22;49;48.530;9.200;2023-08-24T03:25:56;23.90;62.20
418;DHT22;49;48.530;9.200;2023-08-24T03:28:23;23.80;62.60
418;DHT22;49;48.530;9.200;2023-08-24T03:30:52;23.80;62.10
418;DHT22;49;48.530;9.200;2023-08-24T03:33:21;23.70;62.60
418;DHT22;49;48.530;9.200;2023-08-24T03:35:47;23.50;64.10
418;DHT22;49;48.530;9.200;2023-08-24T03:38:15;23.50;64.90
418;DHT22;49;48.530;9.200;2023-08-24T03:40:43;23.60;64.70
418;DHT22;49;48.530;9.200;2023-08-24T03:43:12;23.50;65.20
418;DHT22;49;48.530;9.200;2023-08-24T03:45:39;23.60;63.90
418;DHT22;49;48.530;9.200;2023-08-24T03:48:06;23.60;64.60
418;DHT22;49;48.530;9.200;2023-08-24T03:50:33;23.60;64.50
418;DHT22;49;48.530;9.200;2023-08-24T03:53:00;23.70;63.00
418;DHT22;49;48.530;9.200;2023-08-24T03:55:27;23.80;62.20
418;DHT22;49;48.530;9.200;2023-08-24T03:57:57;23.70;64.80
418;DHT22;49;48.530;9.200;2023-08-24T04:00:25;23.70;65.40
418;DHT22;49;48.530;9.200;2023-08-24T04:02:52;23.60;65.30
418;DHT22;49;48.530;9.200;2023-08-24T04:05:19;23.60;66.80
418;DHT22;49;48.530;9.200;2023-08-24T04:07:46;23.70;66.30
418;DHT22;49;48.530;9.200;2023-08-24T04:10:13;23.60;65.20
418;DHT22;49;48.530;9.200;2023-08-24T04:12:40;23.60;65.40
418;DHT22;49;48.530;9.200;2023-08-24T04:15:09;23.60;64.60
418;DHT22;49;48.530;9.200;2023-08-24T04:17:38;23.50;65.40
418;DHT22;49;48.530;9.200;2023-08-24T04:20:05;23.40;66.40
418;DHT22;49;48.530;9.200;2023-08-24T04:22:33;23.40;66.70
418;DHT22;49;48.530;9.200;2023-08-24T04:25:00;23.50;67.30
418;DHT22;49;48.530;9.200;2023-08-24T04:27:27;23.80;64.10
418;DHT22;49;48.530;9.200;2023-08-24T04:29:55;23.80;63.50
418;DHT22;49;48.530;9.200;2023-08-24T04:32:23;23.50;65.70
418;DHT22;49;48.530;9.200;2023-08-24T04:34:51;23.30;68.50
418;DHT22;49;48.530;9.200;2023-08-24T04:37:18;23.30;69.20
418;DHT22;49;48.530;9.200;2023-08-24T04:39:45;23.30;69.80
418;DHT22;49;48.530;9.200;2023-08-24T04:42:12;23.30;69.80
418;DHT22;49;48.530;9.200;2023-08-24T04:44:41;23.40;69.30
418;DHT22;49;48.530;9.200;2023-08-24T04:47:08;23.40;68.70
418;DHT22;49;48.530;9.200;2023-08-24T04:49:36;23.30;70.00
418;DHT22;49;48.530;9.200;2023-08-24T04:52:04;23.30;71.90
418;DHT22;49;48.530;9.200;2023-08-24T04:54:32;23.50;68.90
418;DHT22;49;48.530;9.200;2023-08-24T04:56:59;23.60;69.00
418;DHT22;49;48.530;9.200;2023-08-24T04:59:26;23.60;68.30
418;DHT22;49;48.530;9.200;2023-08-24T05:01:53;23.60;69.00
418;DHT22;49;48.530;9.200;2023-08-24T05:04:20;23.70;68.50
418;DHT22;49;48.530;9.200;2023-08-24T05:06:46;23.80;65.60
418;DHT22;49;48.530;9.200;2023-08-24T05:09:15;23.90;65.20
418;DHT22;49;48.530;9.200;2023-08-24T05:11:42;23.80;66.20
418;DHT22;49;48.530;9.200;2023-08-24T05:14:10;23.60;67.90
418;DHT22;49;48.530;9.200;2023-08-24T05:16:38;23.60;66.60
418;DHT22;49;48.530;9.200;2023-08-24T05:19:05;23.60;67.90
418;DHT22;49;48.530;9.200;2023-08-24T05:21:32;23.70;66.60
418;DHT22;49;48.530;9.200;2023-08-24T05:23:59;23.90;66.40
418;DHT22;49;48.530;9.200;2023-08-24T05:26:27;24.00;64.90
418;DHT22;49;48.530;9.200;2023-08-24T05:28:54;23.90;63.70
418;DHT22;49;48.530;9.200;2023-08-24T05:31:21;24.00;64.90
418;DHT22;49;48.530;9.200;2023-08-24T05:33:48;23.90;65.20
418;DHT22;49;48.530;9.200;2023-08-24T05:36:14;24.20;64.70
418;DHT22;49;48.530;9.200;2023-08-24T05:38:41;24.60;62.80
418;DHT22;49;48.530;9.200;2023-08-24T05:41:12;25.10;57.70
418;DHT22;49;48.530;9.200;2023-08-24T05:43:40;25.40;54.30
418;DHT22;49;48.530;9.200;2023-08-24T05:46:07;26.10;54.30
418;DHT22;49;48.530;9.200;2023-08-24T05:48:34;26.70;43.00
418;DHT22;49;48.530;9.200;2023-08-24T05:51:01;27.10;39.10
418;DHT22;49;48.530;9.200;2023-08-24T05:53:28;27.10;36.90
418;DHT22;49;48.530;9.200;2023-08-24T05:55:57;27.10;35.80
418;DHT22;49;48.530;9.200;2023-08-24T05:58:24;27.00;35.70
418;DHT22;49;48.530;9.200;2023-08-24T06:00:57;26.80;37.00
418;DHT22;49;48.530;9.200;2023-08-24T06:03:25;26.70;38.70
418;DHT22;49;48.530;9.200;2023-08-24T06:05:52;26.90;40.40
418;DHT22;49;48.530;9.200;2023-08-24T06:08:19;27.30;42.40
418;DHT22;49;48.530;9.200;2023-08-24T06:10:46;28.20;33.80
418;DHT22;49;48.530;9.200;2023-08-24T06:13:12;28.70;29.50
418;DHT22;49;48.530;9.200;2023-08-24T06:15:39;28.50;29.40
418;DHT22;49;48.530;9.200;2023-08-24T06:18:08;28.40;29.90
418;DHT22;49;48.530;9.200;2023-08-24T06:20:35;28.00;30.90
418;DHT22;49;48.530;9.200;2023-08-24T06:23:02;27.50;33.90
418;DHT22;49;48.530;9.200;2023-08-24T06:25:29;27.20;35.80
418;DHT22;49;48.530;9.200;2023-08-24T06:27:57;27.30;36.20
418;DHT22;49;48.530;9.200;2023-08-24T06:30:24;27.00;37.40
418;DHT22;49;48.530;9.200;2023-08-24T06:32:51;26.60;39.00
418;DHT22;49;48.530;9.200;2023-08-24T06:35:19;26.70;38.80
418;DHT22;49;48.530;9.200;2023-08-24T06:37:46;26.60;38.70
418;DHT22;49;48.530;9.200;2023-08-24T06:40:13;26.70;39.00
418;DHT22;49;48.530;9.200;2023-08-24T06:42:40;26.50;39.60
418;DHT22;49;48.530;9.200;2023-08-24T06:45:08;26.40;38.90
418;DHT22;49;48.530;9.200;2023-08-24T06:47:35;26.50;38.60
418;DHT22;49;48.530;9.200;2023-08-24T06:50:03;26.60;37.70
418;DHT22;49;48.530;9.200;2023-08-24T06:52:31;26.40;37.40
418;DHT22;49;48.530;9.200;2023-08-24T06:54:58;26.40;37.30
418;DHT22;49;48.530;9.200;2023-08-24T06:57:26;26.40;36.90
418;DHT22;49;48.530;9.200;2023-08-24T06:59:53;26.30;37.90
418;DHT22;49;48.530;9.200;2023-08-24T07:02:20;26.40;38.50
418;DHT22;49;48.530;9.200;2023-08-24T07:04:47;26.30;38.00
418;DHT22;49;48.530;9.200;2023-08-24T07:07:13;26.30;38.60
418;DHT22;49;48.530;9.200;2023-08-24T07:09:42;26.50;38.30
418;DHT22;49;48.530;9.200;2023-08-24T07:12:09;26.80;38.00
418;DHT22;49;48.530;9.200;2023-08-24T07:14:36;26.80;37.80
418;DHT22;49;48.530;9.200;2023-08-24T07:17:03;26.80;37.90
418;DHT22;49;48.530;9.200;2023-08-24T07:19:30;26.70;37.60
418;DHT22;49;48.530;9.200;2023-08-24T07:21:57;26.80;37.50
418;DHT22;49;48.530;9.200;2023-08-24T07:24:23;27.00;37.60
418;DHT22;49;48.530;9.200;2023-08-24T07:26:53;27.10;35.80
418;DHT22;49;48.530;9.200;2023-08-24T07:29:20;27.20;35.20
418;DHT22;49;48.530;9.200;2023-08-24T07:31:47;27.20;35.40
418;DHT22;49;48.530;9.200;2023-08-24T07:34:14;27.40;35.20
418;DHT22;49;48.530;9.200;2023-08-24T07:36:41;27.20;35.80
418;DHT22;49;48.530;9.200;2023-08-24T07:39:10;27.60;34.80
418;DHT22;49;48.530;9.200;2023-08-24T07:41:37;27.90;33.30
418;DHT22;49;48.530;9.200;2023-08-24T07:44:05;28.10;30.30
418;DHT22;49;48.530;9.200;2023-08-24T07:46:32;28.30;29.70
418;DHT22;49;48.530;9.200;2023-08-24T07:48:59;28.40;29.30
418;DHT22;49;48.530;9.200;2023-08-24T07:51:26;28.60;29.40
418;DHT22;49;48.530;9.200;2023-08-24T07:53:53;28.90;28.60
418;DHT22;49;48.530;9.200;2023-08-24T07:56:20;29.40;28.00
418;DHT22;49;48.530;9.200;2023-08-24T07:58:48;30.50;25.20
418;DHT22;49;48.530;9.200;2023-08-24T08:01:16;31.40;22.30
418;DHT22;49;48.530;9.200;2023-08-24T08:03:43;32.70;19.50
418;DHT22;49;48.530;9.200;2023-08-24T08:06:10;33.60;17.70
418;DHT22;49;48.530;9.200;2023-08-24T08:08:37;34.00;15.40
418;DHT22;49;48.530;9.200;2023-08-24T08:11:04;34.10;14.50
418;DHT22;49;48.530;9.200;2023-08-24T08:13:31;34.70;14.00
418;DHT22;49;48.530;9.200;2023-08-24T08:16:02;34.90;12.60
418;DHT22;49;48.530;9.200;2023-08-24T08:18:32;35.30;11.30
418;DHT22;49;48.530;9.200;2023-08-24T08:20:59;35.80;10.40
418;DHT22;49;48.530;9.200;2023-08-24T08:23:26;35.90;9.40
418;DHT22;49;48.530;9.200;2023-08-24T08:25:52;36.30;9.60
418;DHT22;49;48.530;9.200;2023-08-24T08:28:20;36.70;8.50
418;DHT22;49;48.530;9.200;2023-08-24T08:30:48;36.40;8.70
418;DHT22;49;48.530;9.200;2023-08-24T08:33:15;36.60;8.90
418;DHT22;49;48.530;9.200;2023-08-24T08:35:43;36.80;8.20
418;DHT22;49;48.530;9.200;2023-08-24T08:38:10;37.00;7.80
418;DHT22;49;48.530;9.200;2023-08-24T08:40:37;36.90;7.60
418;DHT22;49;48.530;9.200;2023-08-24T08:43:06;36.60;8.20
418;DHT22;49;48.530;9.200;2023-08-24T08:45:33;36.50;7.80
418;DHT22;49;48.530;9.200;2023-08-24T08:48:01;36.00;8.90
418;DHT22;49;48.530;9.200;2023-08-24T08:50:30;36.10;9.00
418;DHT22;49;48.530;9.200;2023-08-24T08:53:00;35.70;8.30
418;DHT22;49;48.530;9.200;2023-08-24T08:55:28;35.10;10.50
418;DHT22;49;48.530;9.200;2023-08-24T08:57:56;35.20;11.30
418;DHT22;49;48.530;9.200;2023-08-24T09:00:25;35.00;11.30
418;DHT22;49;48.530;9.200;2023-08-24T09:02:53;35.10;11.50
418;DHT22;49;48.530;9.200;2023-08-24T09:05:20;35.00;11.40
418;DHT22;49;48.530;9.200;2023-08-24T09:07:49;35.20;10.80
418;DHT22;49;48.530;9.200;2023-08-24T09:10:17;34.50;10.40
418;DHT22;49;48.530;9.200;2023-08-24T09:12:44;33.70;11.90
418;DHT22;49;48.530;9.200;2023-08-24T09:15:11;33.70;12.10
418;DHT22;49;48.530;9.200;2023-08-24T09:17:42;33.50;13.10
418;DHT22;49;48.530;9.200;2023-08-24T09:20:10;33.60;12.70
418;DHT22;49;48.530;9.200;2023-08-24T09:22:37;33.70;13.20
418;DHT22;49;48.530;9.200;2023-08-24T09:25:08;34.00;12.70
418;DHT22;49;48.530;9.200;2023-08-24T09:27:37;33.60;12.60
418;DHT22;49;48.530;9.200;2023-08-24T09:30:05;32.70;14.80
418;DHT22;49;48.530;9.200;2023-08-24T09:32:32;32.60;15.10
418;DHT22;49;48.530;9.200;2023-08-24T09:35:03;32.80;15.20
418;DHT22;49;48.530;9.200;2023-08-24T09:37:32;32.10;16.30
418;DHT22;49;48.530;9.200;2023-08-24T09:40:02;31.70;17.60
418;DHT22;49;48.530;9.200;2023-08-24T09:42:38;32.10;17.50
418;DHT22;49;48.530;9.200;2023-08-24T09:45:07;31.90;18.10
418;DHT22;49;48.530;9.200;2023-08-24T09:47:36;31.80;19.00
418;DHT22;49;48.530;9.200;2023-08-24T09:50:04;31.70;19.50
418;DHT22;49;48.530;9.200;2023-08-24T09:52:32;31.50;18.80
418;DHT22;49;48.530;9.200;2023-08-24T09:55:03;31.80;19.00
418;DHT22;49;48.530;9.200;2023-08-24T09:57:33;31.70;18.90
418;DHT22;49;48.530;9.200;2023-08-24T10:00:05;32.20;18.80
418;DHT22;49;48.530;9.200;2023-08-24T10:02:37;32.60;18.20
418;DHT22;49;48.530;9.200;2023-08-24T10:05:06;33.10;17.20
418;DHT22;49;48.530;9.200;2023-08-24T10:07:35;33.70;15.00
418;DHT22;49;48.530;9.200;2023-08-24T10:10:04;33.10;16.40
418;DHT22;49;48.530;9.200;2023-08-24T10:12:38;32.80;16.60
418;DHT22;49;48.530;9.200;2023-08-24T10:15:09;32.90;16.60
418;DHT22;49;48.530;9.200;2023-08-24T10:17:38;32.50;17.20
418;DHT22;49;48.530;9.200;2023-08-24T10:20:07;32.10;18.30
418;DHT22;49;48.530;9.200;2023-08-24T10:22:35;32.30;18.30
418;DHT22;49;48.530;9.200;2023-08-24T10:25:03;32.40;18.90
418;DHT22;49;48.530;9.200;2023-08-24T10:27:30;32.50;18.00
418;DHT22;49;48.530;9.200;2023-08-24T10:29:57;33.00;17.20
418;DHT22;49;48.530;9.200;2023-08-24T10:32:26;33.40;17.20
418;DHT22;49;48.530;9.200;2023-08-24T10:34:53;33.80;15.40
418;DHT22;49;48.530;9.200;2023-08-24T10:37:25;33.40;16.20
418;DHT22;49;48.530;9.200;2023-08-24T10:39:52;33.20;16.70
418;DHT22;49;48.530;9.200;2023-08-24T10:42:19;33.50;16.70
418;DHT22;49;48.530;9.200;2023-08-24T10:44:47;33.20;16.50
418;DHT22;49;48.530;9.200;2023-08-24T10:47:15;33.30;16.40
418;DHT22;49;48.530;9.200;2023-08-24T10:49:57;33.30;16.40
418;DHT22;49;48.530;9.200;2023-08-24T10:52:25;33.60;16.00
418;DHT22;49;48.530;9.200;2023-08-24T10:54:53;34.10;15.90
418;DHT22;49;48.530;9.200;2023-08-24T10:57:22;33.90;15.90
418;DHT22;49;48.530;9.200;2023-08-24T10:59:59;34.20;15.70
418;DHT22;49;48.530;9.200;2023-08-24T11:02:26;34.50;14.80
418;DHT22;49;48.530;9.200;2023-08-24T11:05:15;34.20;14.80
418;DHT22;49;48.530;9.200;2023-08-24T11:07:52;33.60;16.30
418;DHT22;49;48.530;9.200;2023-08-24T11:10:21;34.20;15.60
418;DHT22;49;48.530;9.200;2023-08-24T11:13:07;34.30;15.60
418;DHT22;49;48.530;9.200;2023-08-24T11:15:38;34.80;15.10
418;DHT22;49;48.530;9.200;2023-08-24T11:18:22;34.80;15.00
418;DHT22;49;48.530;9.200;2023-08-24T11:20:53;35.10;14.00
418;DHT22;49;48.530;9.200;2023-08-24T11:23:22;35.20;14.00
418;DHT22;49;48.530;9.200;2023-08-24T11:25:50;35.30;14.10
418;DHT22;49;48.530;9.200;2023-08-24T11:28:21;35.40;13.80
418;DHT22;49;48.530;9.200;2023-08-24T11:30:49;35.00;14.40
418;DHT22;49;48.530;9.200;2023-08-24T11:33:27;35.40;14.30
418;DHT22;49;48.530;9.200;2023-08-24T11:35:56;35.50;14.10
418;DHT22;49;48.530;9.200;2023-08-24T11:38:23;35.90;13.00
418;DHT22;49;48.530;9.200;2023-08-24T11:40:50;36.30;12.60
418;DHT22;49;48.530;9.200;2023-08-24T11:43:24;36.50;12.00
418;DHT22;49;48.530;9.200;2023-08-24T11:45:51;36.40;12.00
418;DHT22;49;48.530;9.200;2023-08-24T11:48:18;36.60;11.60
418;DHT22;49;48.530;9.200;2023-08-24T11:50:45;36.90;10.70
418;DHT22;49;48.530;9.200;2023-08-24T11:53:16;37.00;10.30
418;DHT22;49;48.530;9.200;2023-08-24T11:55:43;37.20;9.90
418;DHT22;49;48.530;9.200;2023-08-24T11:58:14;36.70;11.20
418;DHT22;49;48.530;9.200;2023-08-24T12:00:42;36.90;10.90
418;DHT22;49;48.530;9.200;2023-08-24T12:03:09;37.40;10.00
418;DHT22;49;48.530;9.200;2023-08-24T12:05:36;37.20;9.90
418;DHT22;49;48.530;9.200;2023-08-24T12:08:03;37.10;10.20
418;DHT22;49;48.530;9.200;2023-08-24T12:10:32;37.40;10.00
418;DHT22;49;48.530;9.200;2023-08-24T12:13:02;37.80;9.40
418;DHT22;49;48.530;9.200;2023-08-24T12:15:29;37.90;9.50
418;DHT22;49;48.530;9.200;2023-08-24T12:17:55;37.50;9.30
418;DHT22;49;48.530;9.200;2023-08-24T12:20:23;37.90;9.50
418;DHT22;49;48.530;9.200;2023-08-24T12:22:51;38.20;8.60
418;DHT22;49;48.530;9.200;2023-08-24T12:25:18;38.30;8.40
418;DHT22;49;48.530;9.200;2023-08-24T12:27:50;38.30;8.10
418;DHT22;49;48.530;9.200;2023-08-24T12:30:17;38.40;8.20
418;DHT22;49;48.530;9.200;2023-08-24T12:32:44;38.60;7.90
418;DHT22;49;48.530;9.200;2023-08-24T12:35:12;38.60;7.10
418;DHT22;49;48.530;9.200;2023-08-24T12:37:38;38.20;8.00
418;DHT22;49;48.530;9.200;2023-08-24T12:40:06;38.10;8.70
418;DHT22;49;48.530;9.200;2023-08-24T12:42:34;38.30;7.50
418;DHT22;49;48.530;9.200;2023-08-24T12:45:04;38.40;7.10
418;DHT22;49;48.530;9.200;2023-08-24T12:47:31;37.90;7.90
418;DHT22;49;48.530;9.200;2023-08-24T12:50:00;37.90;6.40
418;DHT22;49;48.530;9.200;2023-08-24T12:52:27;37.90;5.20
418;DHT22;49;48.530;9.200;2023-08-24T12:54:53;38.10;5.00
418;DHT22;49;48.530;9.200;2023-08-24T12:57:20;38.10;5.40
418;DHT22;49;48.530;9.200;2023-08-24T12:59:47;38.50;4.50
418;DHT22;49;48.530;9.200;2023-08-24T13:02:15;38.50;5.70
418;DHT22;49;48.530;9.200;2023-08-24T13:04:42;38.70;5.20
418;DHT22;49;48.530;9.200;2023-08-24T13:07:09;38.80;4.20
418;DHT22;49;48.530;9.200;2023-08-24T13:09:36;38.80;4.50
418;DHT22;49;48.530;9.200;2023-08-24T13:12:03;38.40;4.80
418;DHT22;49;48.530;9.200;2023-08-24T13:14:30;38.00;5.20
418;DHT22;49;48.530;9.200;2023-08-24T13:16:56;38.70;4.50
418;DHT22;49;48.530;9.200;2023-08-24T13:19:25;38.70;3.90
418;DHT22;49;48.530;9.200;2023-08-24T13:21:52;38.70;4.50
418;DHT22;49;48.530;9.200;2023-08-24T13:24:18;38.70;4.50
418;DHT22;49;48.530;9.200;2023-08-24T13:26:45;38.00;4.80
418;DHT22;49;48.530;9.200;2023-08-24T13:29:12;37.60;5.30
418;DHT22;49;48.530;9.200;2023-08-24T13:31:39;37.70;5.50
418;DHT22;49;48.530;9.200;2023-08-24T13:34:06;38.10;6.10
418;DHT22;49;48.530;9.200;2023-08-24T13:36:35;38.30;5.30
418;DHT22;49;48.530;9.200;2023-08-24T13:39:02;38.00;4.80
418;DHT22;49;48.530;9.200;2023-08-24T13:41:30;37.90;4.70
418;DHT22;49;48.530;9.200;2023-08-24T13:43:57;38.30;5.10
418;DHT22;49;48.530;9.200;2023-08-24T13:46:23;38.90;3.90
418;DHT22;49;48.530;9.200;2023-08-24T13:48:50;39.20;3.50
418;DHT22;49;48.530;9.200;2023-08-24T13:51:17;39.30;3.60
418;DHT22;49;48.530;9.200;2023-08-24T13:53:45;39.00;3.50
418;DHT22;49;48.530;9.200;2023-08-24T13:56:13;39.00;4.00
418;DHT22;49;48.530;9.200;2023-08-24T13:58:40;38.90;3.90
418;DHT22;49;48.530;9.200;2023-08-24T14:01:07;38.60;3.90
418;DHT22;49;48.530;9.200;2023-08-24T14:03:36;38.20;4.70
418;DHT22;49;48.530;9.200;2023-08-24T14:06:03;38.10;5.20
418;DHT22;49;48.530;9.200;2023-08-24T14:08:30;38.10;5.60
418;DHT22;49;48.530;9.200;2023-08-24T14:10:58;38.40;5.20
418;DHT22;49;48.530;9.200;2023-08-24T14:13:25;38.40;5.30
418;DHT22;49;48.530;9.200;2023-08-24T14:15:52;38.50;4.90
418;DHT22;49;48.530;9.200;2023-08-24T14:18:18;38.50;5.30
418;DHT22;49;48.530;9.200;2023-08-24T14:20:45;38.70;4.50
418;DHT22;49;48.530;9.200;2023-08-24T14:23:12;39.20;4.20
418;DHT22;49;48.530;9.200;2023-08-24T14:25:39;39.50;3.70
418;DHT22;49;48.530;9.200;2023-08-24T14:28:07;39.50;3.30
418;DHT22;49;48.530;9.200;2023-08-24T14:30:34;39.50;3.50
418;DHT22;49;48.530;9.200;2023-08-24T14:33:01;39.30;3.30
418;DHT22;49;48.530;9.200;2023-08-24T14:35:27;39.70;3.30
418;DHT22;49;48.530;9.200;2023-08-24T14:37:54;39.20;2.20
418;DHT22;49;48.530;9.200;2023-08-24T14:40:21;39.10;2.80
418;DHT22;49;48.530;9.200;2023-08-24T14:42:48;39.40;3.20
418;DHT22;49;48.530;9.200;2023-08-24T14:45:17;39.50;2.70
418;DHT22;49;48.530;9.200;2023-08-24T14:47:45;39.60;3.10
418;DHT22;49;48.530;9.200;2023-08-24T14:50:12;39.70;3.00
418;DHT22;49;48.530;9.200;2023-08-24T14:52:39;39.70;4.00
418;DHT22;49;48.530;9.200;2023-08-24T14:55:07;39.90;3.00
418;DHT22;49;48.530;9.200;2023-08-24T14:57:35;40.00;3.40
418;DHT22;49;48.530;9.200;2023-08-24T15:00:02;39.90;3.60
418;DHT22;49;48.530;9.200;2023-08-24T15:02:32;39.80;3.60
418;DHT22;49;48.530;9.200;2023-08-24T15:04:59;39.70;3.60
418;DHT22;49;48.530;9.200;2023-08-24T15:07:25;39.60;3.70
418;DHT22;49;48.530;9.200;2023-08-24T15:09:52;39.50;3.80
418;DHT22;49;48.530;9.200;2023-08-24T15:12:20;39.20;4.20
418;DHT22;49;48.530;9.200;2023-08-24T15:14:58;38.80;4.20
418;DHT22;49;48.530;9.200;2023-08-24T15:17:26;38.40;4.60
418;DHT22;49;48.530;9.200;2023-08-24T15:19:54;38.10;5.20
418;DHT22;49;48.530;9.200;2023-08-24T15:22:22;37.80;6.50
418;DHT22;49;48.530;9.200;2023-08-24T15:24:48;37.10;8.50
418;DHT22;49;48.530;9.200;2023-08-24T15:27:15;35.30;12.00
418;DHT22;49;48.530;9.200;2023-08-24T15:29:44;34.90;14.00
418;DHT22;49;48.530;9.200;2023-08-24T15:32:11;34.70;14.60
418;DHT22;49;48.530;9.200;2023-08-24T15:34:38;34.50;16.50
418;DHT22;49;48.530;9.200;2023-08-24T15:37:06;33.70;18.90
418;DHT22;49;48.530;9.200;2023-08-24T15:39:36;33.20;19.70
418;DHT22;49;48.530;9.200;2023-08-24T15:42:04;32.90;21.40
418;DHT22;49;48.530;9.200;2023-08-24T15:44:31;32.30;22.10
418;DHT22;49;48.530;9.200;2023-08-24T15:46:59;32.20;25.20
418;DHT22;49;48.530;9.200;2023-08-24T15:49:26;32.60;24.20
418;DHT22;49;48.530;9.200;2023-08-24T15:51:53;32.40;24.70
418;DHT22;49;48.530;9.200;2023-08-24T15:54:21;31.70;28.00
418;DHT22;49;48.530;9.200;2023-08-24T15:56:50;31.60;27.60
418;DHT22;49;48.530;9.200;2023-08-24T15:59:18;31.80;27.00
418;DHT22;49;48.530;9.200;2023-08-24T16:01:45;31.90;26.20
418;DHT22;49;48.530;9.200;2023-08-24T16:04:12;32.30;25.40
418;DHT22;49;48.530;9.200;2023-08-24T16:06:39;32.40;24.70
418;DHT22;49;48.530;9.200;2023-08-24T16:09:06;32.00;25.20
418;DHT22;49;48.530;9.200;2023-08-24T16:11:34;32.00;24.40
418;DHT22;49;48.530;9.200;2023-08-24T16:14:02;32.20;23.60
418;DHT22;49;48.530;9.200;2023-08-24T16:16:30;31.30;24.90
418;DHT22;49;48.530;9.200;2023-08-24T16:18:58;31.20;25.50
418;DHT22;49;48.530;9.200;2023-08-24T16:21:26;30.80;26.80
418;DHT22;49;48.530;9.200;2023-08-24T16:23:53;31.10;27.00
418;DHT22;49;48.530;9.200;2023-08-24T16:26:20;31.30;26.00
418;DHT22;49;48.530;9.200;2023-08-24T16:28:48;30.90;26.70
418;DHT22;49;48.530;9.200;2023-08-24T16:31:16;30.60;28.80
418;DHT22;49;48.530;9.200;2023-08-24T16:33:42;30.30;30.30
418;DHT22;49;48.530;9.200;2023-08-24T16:36:09;30.20;31.10
418;DHT22;49;48.530;9.200;2023-08-24T16:38:36;30.30;30.50
418;DHT22;49;48.530;9.200;2023-08-24T16:41:03;30.00;33.60
418;DHT22;49;48.530;9.200;2023-08-24T16:43:30;30.10;32.00
418;DHT22;49;48.530;9.200;2023-08-24T16:45:58;29.50;34.70
418;DHT22;49;48.530;9.200;2023-08-24T16:48:25;29.50;34.50
418;DHT22;49;48.530;9.200;2023-08-24T16:50:52;29.50;32.90
418;DHT22;49;48.530;9.200;2023-08-24T16:53:19;29.50;32.50
418;DHT22;49;48.530;9.200;2023-08-24T16:55:46;29.70;31.50
418;DHT22;49;48.530;9.200;2023-08-24T16:58:15;30.20;30.30
418;DHT22;49;48.530;9.200;2023-08-24T17:00:42;30.80;27.60
418;DHT22;49;48.530;9.200;2023-08-24T17:03:11;31.20;25.90